sensor_id;sensor_type;location;lat;lon;timestamp;pressure;altitude;pressure_sealevel;temperature;humidity
71195;BME280;58908;51.426;7.714;2023-12-20T00:00:07;99493.50;;;7.21;100.00
71195;BME280;58908;51.426;7.714;2023-12-20T00:02:33;99497.06;;;7.20;100.00
71195;BME280;58908;51.426;7.714;2023-12-20T00:05:00;99491.47;;;7.28;100.00
71195;BME280;58908;51.426;7.714;2023-12-20T00:07:26;99501.53;;;7.18;100.00
71195;BME280;58908;51.426;7.714;2023-12-20T00:09:52;99506.00;;;7.16;100.00
71195;BME280;58908;51.426;7.714;2023-12-20T00:12:19;99518.97;;;7.19;100.00
71195;BME280;58908;51.426;7.714;2023-12-20T00:14:45;99514.88;;;7.14;100.00
71195;BME280;58908;51.426;7.714;2023-12-20T00:17:13;99516.56;;;7.15;100.00
71195;BME280;58908;51.426;7.714;2023-12-20T00:19:39;99502.19;;;7.05;100.00
71195;BME280;58908;51.426;7.714;2023-12-20T00:22:05;99513.59;;;7.04;100.00
71195;BME280;58908;51.426;7.714;2023-12-20T00:24:31;99507.72;;;6.99;100.00
71195;BME280;58908;51.426;7.714;2023-12-20T00:26:58;99506.03;;;6.98;100.00
71195;BME280;58908;51.426;7.714;2023-12-20T00:29:24;99521.00;;;6.96;100.00
71195;BME280;58908;51.426;7.714;2023-12-20T00:31:50;99509.56;;;6.97;100.00
71195;BME280;58908;51.426;7.714;2023-12-20T00:34:18;99511.34;;;6.97;100.00
71195;BME280;58908;51.426;7.714;2023-12-20T00:36:44;99513.03;;;6.97;100.00
71195;BME280;58908;51.426;7.714;2023-12-20T00:39:10;99515.75;;;6.96;100.00
71195;BME280;58908;51.426;7.714;2023-12-20T00:41:37;99513.25;;;6.93;100.00
71195;BME280;58908;51.426;7.714;2023-12-20T00:44:03;99522.69;;;6.97;100.00
71195;BME280;58908;51.426;7.714;2023-12-20T00:46:29;99526.09;;;6.99;100.00
71195;BME280;58908;51.426;7.714;2023-12-20T00:48:56;99524.22;;;7.01;100.00
71195;BME280;58908;51.426;7.714;2023-12-20T00:51:23;99522.75;;;6.96;100.00
71195;BME280;58908;51.426;7.714;2023-12-20T00:53:50;99518.16;;;7.01;100.00
71195;BME280;58908;51.426;7.714;2023-12-20T00:56:19;99526.91;;;6.99;100.00
71195;BME280;58908;51.426;7.714;2023-12-20T00:58:46;99532.31;;;6.97;100.00
71195;BME280;58908;51.426;7.714;2023-12-20T01:01:12;99528.00;;;6.96;100.00
71195;BME280;58908;51.426;7.714;2023-12-20T01:03:39;99537.56;;;6.97;100.00
71195;BME280;58908;51.426;7.714;2023-12-20T01:06:05;99532.53;;;6.92;100.00
71195;BME280;58908;51.426;7.714;2023-12-20T01:08:33;99532.53;;;6.92;100.00
71195;BME280;58908;51.426;7.714;2023-12-20T01:11:00;99537.84;;;6.91;100.00
71195;BME280;58908;51.426;7.714;2023-12-20T01:13:30;99543.41;;;6.83;100.00
71195;BME280;58908;51.426;7.714;2023-12-20T01:15:57;99552.16;;;6.84;100.00
71195;BME280;58908;51.426;7.714;2023-12-20T01:18:23;99551.56;;;6.77;100.00
71195;BME280;58908;51.426;7.714;2023-12-20T01:20:50;99536.72;;;6.78;100.00
71195;BME280;58908;51.426;7.714;2023-12-20T01:23:17;99547.19;;;6.78;100.00
71195;BME280;58908;51.426;7.714;2023-12-20T01:25:45;99558.56;;;6.77;100.00
71195;BME280;58908;51.426;7.714;2023-12-20T01:28:11;99567.66;;;6.70;100.00
71195;BME280;58908;51.426;7.714;2023-12-20T01:30:38;99569.13;;;6.57;100.00
71195;BME280;58908;51.426;7.714;2023-12-20T01:33:04;99586.00;;;6.50;100.00
71195;BME280;58908;51.426;7.714;2023-12-20T01:35:31;99592.22;;;6.47;100.00
71195;BME280;58908;51.426;7.714;2023-12-20T01:37:57;99592.38;;;6.44;100.00
71195;BME280;58908;51.426;7.714;2023-12-20T01:40:24;99596.75;;;6.44;100.00
71195;BME280;58908;51.426;7.714;2023-12-20T01:42:59;99604.41;;;6.48;100.00
71195;BME280;58908;51.426;7.714;2023-12-20T01:45:26;99611.81;;;6.39;100.00
71195;BME280;58908;51.426;7.714;2023-12-20T01:47:52;99616.19;;;6.38;100.00
71195;BME280;58908;51.426;7.714;2023-12-20T01:50:19;99612.41;;;6.45;100.00
71195;BME280;58908;51.426;7.714;2023-12-20T01:52:45;99622.31;;;6.39;100.00
71195;BME280;58908;51.426;7.714;2023-12-20T01:55:12;99622.34;;;6.37;100.00
71195;BME280;58908;51.426;7.714;2023-12-20T01:57:40;99617.78;;;6.42;100.00
71195;BME280;58908;51.426;7.714;2023-12-20T02:00:09;99622.06;;;6.45;100.00
71195;BME280;58908;51.426;7.714;2023-12-20T02:02:37;99605.06;;;6.33;100.00
71195;BME280;58908;51.426;7.714;2023-12-20T02:05:05;99613.66;;;6.37;100.00
71195;BME280;58908;51.426;7.714;2023-12-20T02:07:32;99612.97;;;6.32;100.00
71195;BME280;58908;51.426;7.714;2023-12-20T02:10:00;99609.41;;;6.34;100.00
71195;BME280;58908;51.426;7.714;2023-12-20T02:12:26;99608.66;;;6.31;100.00
71195;BME280;58908;51.426;7.714;2023-12-20T02:14:52;99611.22;;;6.32;100.00
71195;BME280;58908;51.426;7.714;2023-12-20T02:17:20;99611.09;;;6.35;100.00
71195;BME280;58908;51.426;7.714;2023-12-20T02:19:46;99612.97;;;6.32;100.00
71195;BME280;58908;51.426;7.714;2023-12-20T02:22:14;99598.34;;;6.28;100.00
71195;BME280;58908;51.426;7.714;2023-12-20T02:24:39;99605.28;;;6.29;100.00
71195;BME280;58908;51.426;7.714;2023-12-20T02:27:06;99613.13;;;6.29;100.00
71195;BME280;58908;51.426;7.714;2023-12-20T02:29:33;99604.53;;;6.25;100.00
71195;BME280;58908;51.426;7.714;2023-12-20T02:31:59;99604.81;;;6.19;100.00
71195;BME280;58908;51.426;7.714;2023-12-20T02:34:25;99603.13;;;6.18;100.00
71195;BME280;58908;51.426;7.714;2023-12-20T02:36:51;99607.63;;;6.15;100.00
71195;BME280;58908;51.426;7.714;2023-12-20T02:39:19;99607.63;;;6.15;100.00
71195;BME280;58908;51.426;7.714;2023-12-20T02:41:46;99618.09;;;6.15;100.00
71195;BME280;58908;51.426;7.714;2023-12-20T02:44:12;99611.41;;;6.08;100.00
71195;BME280;58908;51.426;7.714;2023-12-20T02:46:38;99619.34;;;6.06;100.00
71195;BME280;58908;51.426;7.714;2023-12-20T02:49:05;99612.00;;;5.94;100.00
71195;BME280;58908;51.426;7.714;2023-12-20T02:51:31;99613.69;;;5.95;100.00
71195;BME280;58908;51.426;7.714;2023-12-20T02:53:58;99622.63;;;5.90;100.00
71195;BME280;58908;51.426;7.714;2023-12-20T02:56:25;99614.38;;;5.77;100.00
71195;BME280;58908;51.426;7.714;2023-12-20T02:58:52;99610.38;;;5.69;100.00
71195;BME280;58908;51.426;7.714;2023-12-20T03:01:18;99612.41;;;5.62;100.00
71195;BME280;58908;51.426;7.714;2023-12-20T03:03:44;99616.09;;;5.57;100.00
71195;BME280;58908;51.426;7.714;2023-12-20T03:06:11;99610.75;;;5.60;100.00
71195;BME280;58908;51.426;7.714;2023-12-20T03:08:37;99608.72;;;5.66;100.00
71195;BME280;58908;51.426;7.714;2023-12-20T03:11:03;99611.56;;;5.60;100.00
71195;BME280;58908;51.426;7.714;2023-12-20T03:13:31;99600.44;;;5.55;100.00
71195;BME280;58908;51.426;7.714;2023-12-20T03:15:57;99607.16;;;5.62;100.00
71195;BME280;58908;51.426;7.714;2023-12-20T03:18:23;99601.38;;;5.54;100.00
71195;BME280;58908;51.426;7.714;2023-12-20T03:20:50;99599.97;;;5.67;100.00
71195;BME280;58908;51.426;7.714;2023-12-20T03:23:16;99608.72;;;5.66;100.00
71195;BME280;58908;51.426;7.714;2023-12-20T03:25:42;99608.41;;;5.74;100.00
71195;BME280;58908;51.426;7.714;2023-12-20T03:28:09;99600.84;;;5.68;100.00
71195;BME280;58908;51.426;7.714;2023-12-20T03:30:36;99595.47;;;5.71;100.00
71195;BME280;58908;51.426;7.714;2023-12-20T03:33:03;99600.44;;;5.77;100.00
71195;BME280;58908;51.426;7.714;2023-12-20T03:35:29;99603.91;;;5.77;100.00
71195;BME280;58908;51.426;7.714;2023-12-20T03:37:55;99611.75;;;5.79;100.00
71195;BME280;58908;51.426;7.714;2023-12-20T03:40:22;99605.34;;;5.86;100.00
71195;BME280;58908;51.426;7.714;2023-12-20T03:42:48;99607.41;;;5.78;100.00
71195;BME280;58908;51.426;7.714;2023-12-20T03:45:14;99611.56;;;5.83;100.00
71195;BME280;58908;51.426;7.714;2023-12-20T03:47:42;99604.50;;;5.85;100.00
71195;BME280;58908;51.426;7.714;2023-12-20T03:50:08;99610.56;;;5.86;100.00
71195;BME280;58908;51.426;7.714;2023-12-20T03:52:34;99612.22;;;5.88;100.00
71195;BME280;58908;51.426;7.714;2023-12-20T03:55:01;99611.34;;;5.88;100.00
71195;BME280;58908;51.426;7.714;2023-12-20T03:57:27;99610.56;;;5.86;100.00
71195;BME280;58908;51.426;7.714;2023-12-20T03:59:53;99610.53;;;5.87;100.00
71195;BME280;58908;51.426;7.714;2023-12-20T04:02:19;99615.94;;;5.83;100.00
71195;BME280;58908;51.426;7.714;2023-12-20T04:04:47;99614.09;;;5.85;100.00
71195;BME280;58908;51.426;7.714;2023-12-20T04:07:14;99610.56;;;5.86;100.00
71195;BME280;58908;51.426;7.714;2023-12-20T04:09:40;99614.38;;;5.79;100.00
71195;BME280;58908;51.426;7.714;2023-12-20T04:12:06;99612.22;;;5.67;100.00
71195;BME280;58908;51.426;7.714;2023-12-20T04:14:33;99622.53;;;5.70;100.00
71195;BME280;58908;51.426;7.714;2023-12-20T04:16:59;99620.59;;;5.75;100.00
71195;BME280;58908;51.426;7.714;2023-12-20T04:19:25;99613.91;;;5.68;100.00
71195;BME280;58908;51.426;7.714;2023-12-20T04:21:53;99603.53;;;5.65;100.00
71195;BME280;58908;51.426;7.714;2023-12-20T04:24:20;99612.31;;;5.64;100.00
71195;BME280;58908;51.426;7.714;2023-12-20T04:26:47;99618.59;;;5.60;100.00
71195;BME280;58908;51.426;7.714;2023-12-20T04:29:13;99617.84;;;5.56;100.00
71195;BME280;58908;51.426;7.714;2023-12-20T04:31:39;99603.81;;;5.59;100.00
71195;BME280;58908;51.426;7.714;2023-12-20T04:34:06;99608.97;;;5.60;100.00
71195;BME280;58908;51.426;7.714;2023-12-20T04:36:32;99614.09;;;5.63;100.00
71195;BME280;58908;51.426;7.714;2023-12-20T04:39:00;99613.31;;;5.61;100.00
71195;BME280;58908;51.426;7.714;2023-12-20T04:41:28;99614.13;;;5.62;100.00
71195;BME280;58908;51.426;7.714;2023-12-20T04:43:54;99611.53;;;5.62;100.00
71195;BME280;58908;51.426;7.714;2023-12-20T04:46:23;99606.56;;;5.56;100.00
71195;BME280;58908;51.426;7.714;2023-12-20T04:48:51;99608.25;;;5.57;100.00
71195;BME280;58908;51.426;7.714;2023-12-20T04:51:17;99609.94;;;5.58;100.00
71195;BME280;58908;51.426;7.714;2023-12-20T04:53:44;99612.66;;;5.55;100.00
71195;BME280;58908;51.426;7.714;2023-12-20T04:56:14;99605.13;;;5.47;100.00
71195;BME280;58908;51.426;7.714;2023-12-20T04:58:41;99614.56;;;5.51;100.00
71195;BME280;58908;51.426;7.714;2023-12-20T05:01:08;99616.44;;;5.48;100.00
71195;BME280;58908;51.426;7.714;2023-12-20T05:03:34;99619.13;;;5.46;100.00
71195;BME280;58908;51.426;7.714;2023-12-20T05:06:01;99613.53;;;5.55;100.00
71195;BME280;58908;51.426;7.714;2023-12-20T05:08:27;99614.31;;;5.57;100.00
71195;BME280;58908;51.426;7.714;2023-12-20T05:10:54;99604.81;;;5.55;100.00
71195;BME280;58908;51.426;7.714;2023-12-20T05:13:22;99606.16;;;5.65;100.00
71195;BME280;58908;51.426;7.714;2023-12-20T05:15:48;99609.69;;;5.64;100.00
71195;BME280;58908;51.426;7.714;2023-12-20T05:18:14;99599.97;;;5.67;100.00
71195;BME280;58908;51.426;7.714;2023-12-20T05:20:40;99613.91;;;5.68;100.00
71195;BME280;58908;51.426;7.714;2023-12-20T05:23:07;99614.69;;;5.70;100.00
71195;BME280;58908;51.426;7.714;2023-12-20T05:25:33;99609.47;;;5.70;100.00
71195;BME280;58908;51.426;7.714;2023-12-20T05:28:00;99626.81;;;5.72;100.00
71195;BME280;58908;51.426;7.714;2023-12-20T05:30:27;99627.66;;;5.73;100.00
71195;BME280;58908;51.426;7.714;2023-12-20T05:32:53;99622.59;;;5.68;100.00
71195;BME280;58908;51.426;7.714;2023-12-20T05:35:20;99623.28;;;5.73;100.00
71195;BME280;58908;51.426;7.714;2023-12-20T05:37:47;99632.06;;;5.72;100.00
71195;BME280;58908;51.426;7.714;2023-12-20T05:40:13;99625.22;;;5.68;100.00
71195;BME280;58908;51.426;7.714;2023-12-20T05:42:40;99617.66;;;5.61;100.00
71195;BME280;58908;51.426;7.714;2023-12-20T05:45:06;99621.34;;;5.57;100.00
71195;BME280;58908;51.426;7.714;2023-12-20T05:47:34;99628.09;;;5.62;100.00
71195;BME280;58908;51.426;7.714;2023-12-20T05:50:00;99622.91;;;5.61;100.00
71195;BME280;58908;51.426;7.714;2023-12-20T05:52:26;99627.84;;;5.68;100.00
71195;BME280;58908;51.426;7.714;2023-12-20T05:54:53;99629.88;;;5.60;100.00
71195;BME280;58908;51.426;7.714;2023-12-20T05:57:20;99635.94;;;5.62;100.00
71195;BME280;58908;51.426;7.714;2023-12-20T05:59:48;99617.84;;;5.56;100.00
71195;BME280;58908;51.426;7.714;2023-12-20T06:02:14;99619.38;;;5.62;100.00
71195;BME280;58908;51.426;7.714;2023-12-20T06:04:43;99617.84;;;5.56;100.00
71195;BME280;58908;51.426;7.714;2023-12-20T06:07:11;99624.59;;;5.62;100.00
71195;BME280;58908;51.426;7.714;2023-12-20T06:09:37;99626.38;;;5.61;100.00
71195;BME280;58908;51.426;7.714;2023-12-20T06:12:04;99633.25;;;5.64;100.00
71195;BME280;58908;51.426;7.714;2023-12-20T06:14:30;99628.69;;;5.69;100.00
71195;BME280;58908;51.426;7.714;2023-12-20T06:16:57;99632.50;;;5.60;100.00
71195;BME280;58908;51.426;7.714;2023-12-20T06:19:23;99627.66;;;5.51;100.00
71195;BME280;58908;51.426;7.714;2023-12-20T06:21:51;99619.06;;;5.48;100.00
71195;BME280;58908;51.426;7.714;2023-12-20T06:24:17;99612.97;;;5.47;100.00
71195;BME280;58908;51.426;7.714;2023-12-20T06:26:43;99612.88;;;5.50;100.00
71195;BME280;58908;51.426;7.714;2023-12-20T06:29:10;99610.19;;;5.52;100.00
71195;BME280;58908;51.426;7.714;2023-12-20T06:31:36;99608.53;;;5.49;100.00
71195;BME280;58908;51.426;7.714;2023-12-20T06:34:02;99611.88;;;5.53;100.00
71195;BME280;58908;51.426;7.714;2023-12-20T06:36:29;99618.09;;;5.50;100.00
71195;BME280;58908;51.426;7.714;2023-12-20T06:38:56;99622.13;;;5.59;100.00
71195;BME280;58908;51.426;7.714;2023-12-20T06:41:23;99619.41;;;5.60;100.00
71195;BME280;58908;51.426;7.714;2023-12-20T06:43:50;99618.31;;;5.66;100.00
71195;BME280;58908;51.426;7.714;2023-12-20T06:46:16;99616.75;;;5.62;100.00
71195;BME280;58908;51.426;7.714;2023-12-20T06:48:42;99615.53;;;5.70;100.00
71195;BME280;58908;51.426;7.714;2023-12-20T06:51:10;99626.31;;;5.63;100.00
71195;BME280;58908;51.426;7.714;2023-12-20T06:53:37;99622.84;;;5.62;100.00
71195;BME280;58908;51.426;7.714;2023-12-20T06:56:05;99615.78;;;5.64;100.00
71195;BME280;58908;51.426;7.714;2023-12-20T06:58:32;99620.28;;;5.61;100.00
71195;BME280;58908;51.426;7.714;2023-12-20T07:00:58;99601.19;;;5.59;100.00
71195;BME280;58908;51.426;7.714;2023-12-20T07:03:24;99605.25;;;5.66;100.00
71195;BME280;58908;51.426;7.714;2023-12-20T07:05:51;99612.31;;;5.64;100.00
71195;BME280;58908;51.426;7.714;2023-12-20T07:08:17;99615.84;;;5.63;100.00
71195;BME280;58908;51.426;7.714;2023-12-20T07:10:44;99610.13;;;5.75;100.00
71195;BME280;58908;51.426;7.714;2023-12-20T07:13:12;99615.47;;;5.72;100.00
71195;BME280;58908;51.426;7.714;2023-12-20T07:15:40;99618.97;;;5.72;100.00
71195;BME280;58908;51.426;7.714;2023-12-20T07:18:06;99617.13;;;5.74;100.00
71195;BME280;58908;51.426;7.714;2023-12-20T07:20:32;99627.84;;;5.68;100.00
71195;BME280;58908;51.426;7.714;2023-12-20T07:22:59;99623.47;;;5.69;100.00
71195;BME280;58908;51.426;7.714;2023-12-20T07:25:25;99624.25;;;5.71;100.00
71195;BME280;58908;51.426;7.714;2023-12-20T07:27:52;99632.84;;;5.74;100.00
71195;BME280;58908;51.426;7.714;2023-12-20T07:30:19;99626.88;;;5.71;100.00
71195;BME280;58908;51.426;7.714;2023-12-20T07:32:45;99634.38;;;5.80;100.00
71195;BME280;58908;51.426;7.714;2023-12-20T07:35:14;99630.94;;;5.78;100.00
71195;BME280;58908;51.426;7.714;2023-12-20T07:37:40;99629.16;;;5.80;100.00
71195;BME280;58908;51.426;7.714;2023-12-20T07:40:07;99637.16;;;5.75;100.00
71195;BME280;58908;51.426;7.714;2023-12-20T07:42:33;99637.06;;;5.77;100.00
71195;BME280;58908;51.426;7.714;2023-12-20T07:44:59;99642.31;;;5.77;100.00
71195;BME280;58908;51.426;7.714;2023-12-20T07:47:27;99648.47;;;5.76;100.00
71195;BME280;58908;51.426;7.714;2023-12-20T07:49:53;99653.44;;;5.83;100.00
71195;BME280;58908;51.426;7.714;2023-12-20T07:52:19;99649.72;;;5.89;100.00
71195;BME280;58908;51.426;7.714;2023-12-20T07:54:49;99649.44;;;5.73;100.00
71195;BME280;58908;51.426;7.714;2023-12-20T07:57:16;99642.16;;;5.81;100.00
71195;BME280;58908;51.426;7.714;2023-12-20T07:59:42;99640.53;;;5.79;100.00
71195;BME280;58908;51.426;7.714;2023-12-20T08:02:09;99637.94;;;5.77;100.00
71195;BME280;58908;51.426;7.714;2023-12-20T08:04:37;99634.53;;;5.75;100.00
71195;BME280;58908;51.426;7.714;2023-12-20T08:07:03;99638.75;;;5.79;100.00
71195;BME280;58908;51.426;7.714;2023-12-20T08:09:30;99638.81;;;5.78;100.00
71195;BME280;58908;51.426;7.714;2023-12-20T08:11:58;99632.69;;;5.79;100.00
71195;BME280;58908;51.426;7.714;2023-12-20T08:14:25;99628.28;;;5.79;100.00
71195;BME280;58908;51.426;7.714;2023-12-20T08:16:52;99633.34;;;5.84;100.00
71195;BME280;58908;51.426;7.714;2023-12-20T08:19:18;99627.38;;;5.80;100.00
71195;BME280;58908;51.426;7.714;2023-12-20T08:21:46;99643.22;;;5.76;100.00
71195;BME280;58908;51.426;7.714;2023-12-20T08:24:12;99631.00;;;5.76;100.00
71195;BME280;58908;51.426;7.714;2023-12-20T08:26:39;99622.13;;;5.80;100.00
71195;BME280;58908;51.426;7.714;2023-12-20T08:29:05;99630.94;;;5.78;100.00
71195;BME280;58908;51.426;7.714;2023-12-20T08:31:34;99635.22;;;5.80;100.00
71195;BME280;58908;51.426;7.714;2023-12-20T08:34:01;99629.16;;;5.80;100.00
71195;BME280;58908;51.426;7.714;2023-12-20T08:36:31;99632.25;;;5.89;100.00
71195;BME280;58908;51.426;7.714;2023-12-20T08:38:58;99626.09;;;5.90;100.00
71195;BME280;58908;51.426;7.714;2023-12-20T08:41:25;99623.44;;;5.92;100.00
71195;BME280;58908;51.426;7.714;2023-12-20T08:43:52;99630.19;;;5.97;100.00
71195;BME280;58908;51.426;7.714;2023-12-20T08:46:18;99631.00;;;5.98;100.00
71195;BME280;58908;51.426;7.714;2023-12-20T08:48:45;99626.56;;;6.00;100.00
71195;BME280;58908;51.426;7.714;2023-12-20T08:51:12;99628.16;;;6.04;100.00
71195;BME280;58908;51.426;7.714;2023-12-20T08:53:39;99631.63;;;6.04;100.00
71195;BME280;58908;51.426;7.714;2023-12-20T08:56:06;99641.06;;;6.08;100.00
71195;BME280;58908;51.426;7.714;2023-12-20T08:58:33;99634.69;;;5.94;100.00
71195;BME280;58908;51.426;7.714;2023-12-20T09:01:01;99627.97;;;6.08;100.00
71195;BME280;58908;51.426;7.714;2023-12-20T09:03:27;99618.34;;;6.09;100.00
71195;BME280;58908;51.426;7.714;2023-12-20T09:05:54;99627.88;;;6.10;100.00
71195;BME280;58908;51.426;7.714;2023-12-20T09:08:20;99620.72;;;6.15;100.00
71195;BME280;58908;51.426;7.714;2023-12-20T09:10:47;99618.22;;;6.12;100.00
71195;BME280;58908;51.426;7.714;2023-12-20T09:13:14;99617.81;;;6.21;100.00
71195;BME280;58908;51.426;7.714;2023-12-20T09:15:41;99617.13;;;6.17;100.00
71195;BME280;58908;51.426;7.714;2023-12-20T09:18:07;99610.06;;;6.19;100.00
71195;BME280;58908;51.426;7.714;2023-12-20T09:20:34;99620.25;;;6.25;100.00
71195;BME280;58908;51.426;7.714;2023-12-20T09:23:00;99614.41;;;6.19;100.00
71195;BME280;58908;51.426;7.714;2023-12-20T09:25:27;99621.25;;;6.23;100.00
71195;BME280;58908;51.426;7.714;2023-12-20T09:27:54;99618.56;;;6.24;100.00
71195;BME280;58908;51.426;7.714;2023-12-20T09:30:21;99609.97;;;6.21;100.00
71195;BME280;58908;51.426;7.714;2023-12-20T09:32:48;99612.59;;;6.21;100.00
71195;BME280;58908;51.426;7.714;2023-12-20T09:35:15;99614.22;;;6.23;100.00
71195;BME280;58908;51.426;7.714;2023-12-20T09:37:41;99598.72;;;6.39;100.00
71195;BME280;58908;51.426;7.714;2023-12-20T09:40:10;99593.81;;;6.31;100.00
71195;BME280;58908;51.426;7.714;2023-12-20T09:42:38;99591.41;;;6.27;100.00
71195;BME280;58908;51.426;7.714;2023-12-20T09:45:06;99593.63;;;6.36;100.00
71195;BME280;58908;51.426;7.714;2023-12-20T09:47:36;99597.06;;;6.36;100.00
71195;BME280;58908;51.426;7.714;2023-12-20T09:50:03;99590.34;;;6.31;100.00
71195;BME280;58908;51.426;7.714;2023-12-20T09:52:29;99594.47;;;6.36;100.00
71195;BME280;58908;51.426;7.714;2023-12-20T09:54:59;99592.19;;;6.49;100.00
71195;BME280;58908;51.426;7.714;2023-12-20T09:57:29;99576.00;;;6.39;100.00
71195;BME280;58908;51.426;7.714;2023-12-20T09:59:55;99574.28;;;6.38;100.00
71195;BME280;58908;51.426;7.714;2023-12-20T10:02:21;99584.66;;;6.41;100.00
71195;BME280;58908;51.426;7.714;2023-12-20T10:04:54;99589.91;;;6.41;100.00
71195;BME280;58908;51.426;7.714;2023-12-20T10:07:20;99597.47;;;6.47;100.00
71195;BME280;58908;51.426;7.714;2023-12-20T10:09:47;99578.63;;;6.39;100.00
71195;BME280;58908;51.426;7.714;2023-12-20T10:12:13;99594.13;;;6.44;100.00
71195;BME280;58908;51.426;7.714;2023-12-20T10:14:40;99597.28;;;6.52;100.00
71195;BME280;58908;51.426;7.714;2023-12-20T10:17:06;99587.66;;;6.52;100.00
71195;BME280;58908;51.426;7.714;2023-12-20T10:19:33;99575.72;;;6.65;100.00
71195;BME280;58908;51.426;7.714;2023-12-20T10:22:01;99579.50;;;6.58;100.00
71195;BME280;58908;51.426;7.714;2023-12-20T10:24:28;99575.19;;;6.57;100.00
71195;BME280;58908;51.426;7.714;2023-12-20T10:27:00;99570.69;;;6.61;100.00
71195;BME280;58908;51.426;7.714;2023-12-20T10:29:30;99564.84;;;6.54;100.00
71195;BME280;58908;51.426;7.714;2023-12-20T10:31:57;99561.06;;;6.61;100.00
71195;BME280;58908;51.426;7.714;2023-12-20T10:34:23;99557.44;;;6.64;100.00
71195;BME280;58908;51.426;7.714;2023-12-20T10:36:49;99552.97;;;6.66;100.00
71195;BME280;58908;51.426;7.714;2023-12-20T10:39:17;99550.50;;;6.63;100.00
71195;BME280;58908;51.426;7.714;2023-12-20T10:41:45;99550.28;;;6.67;100.00
71195;BME280;58908;51.426;7.714;2023-12-20T10:44:12;99535.00;;;6.77;100.00
71195;BME280;58908;51.426;7.714;2023-12-20T10:46:39;99542.03;;;6.76;100.00
71195;BME280;58908;51.426;7.714;2023-12-20T10:49:05;99551.25;;;6.65;100.00
71195;BME280;58908;51.426;7.714;2023-12-20T10:51:32;99547.88;;;6.63;100.00
71195;BME280;58908;51.426;7.714;2023-12-20T10:54:00;99550.56;;;6.61;100.00
71195;BME280;58908;51.426;7.714;2023-12-20T10:56:28;99557.56;;;6.61;100.00
71195;BME280;58908;51.426;7.714;2023-12-20T10:58:58;99553.59;;;6.52;100.00
71195;BME280;58908;51.426;7.714;2023-12-20T11:01:28;99557.72;;;6.58;100.00
71195;BME280;58908;51.426;7.714;2023-12-20T11:03:55;99560.91;;;6.64;100.00
71195;BME280;58908;51.426;7.714;2023-12-20T11:06:26;99558.34;;;6.63;100.00
71195;BME280;58908;51.426;7.714;2023-12-20T11:08:55;99540.22;;;6.58;100.00
71195;BME280;58908;51.426;7.714;2023-12-20T11:11:34;99546.13;;;6.63;100.00
71195;BME280;58908;51.426;7.714;2023-12-20T11:14:03;99556.59;;;6.63;100.00
71195;BME280;58908;51.426;7.714;2023-12-20T11:16:31;99549.50;;;6.65;100.00
71195;BME280;58908;51.426;7.714;2023-12-20T11:18:57;99541.44;;;6.70;100.00
71195;BME280;58908;51.426;7.714;2023-12-20T11:21:23;99538.69;;;6.73;100.00
71195;BME280;58908;51.426;7.714;2023-12-20T11:23:50;99547.41;;;6.73;100.00
71195;BME280;58908;51.426;7.714;2023-12-20T11:26:17;99545.75;;;6.71;100.00
71195;BME280;58908;51.426;7.714;2023-12-20T11:28:49;99559.63;;;6.54;100.00
71195;BME280;58908;51.426;7.714;2023-12-20T11:31:16;99569.13;;;6.57;100.00
71195;BME280;58908;51.426;7.714;2023-12-20T11:33:43;99567.81;;;6.47;100.00
71195;BME280;58908;51.426;7.714;2023-12-20T11:36:13;99568.31;;;6.55;100.00
71195;BME280;58908;51.426;7.714;2023-12-20T11:38:49;99557.97;;;6.52;100.00
71195;BME280;58908;51.426;7.714;2023-12-20T11:41:20;99561.56;;;6.49;100.00
71195;BME280;58908;51.426;7.714;2023-12-20T11:43:49;99552.88;;;6.49;100.00
71195;BME280;58908;51.426;7.714;2023-12-20T11:46:19;99537.69;;;6.57;100.00
71195;BME280;58908;51.426;7.714;2023-12-20T11:48:46;99542.06;;;6.56;100.00
71195;BME280;58908;51.426;7.714;2023-12-20T11:51:13;99534.13;;;6.58;100.00
71195;BME280;58908;51.426;7.714;2023-12-20T11:53:40;99533.59;;;6.70;100.00
71195;BME280;58908;51.426;7.714;2023-12-20T11:56:07;99536.47;;;6.64;100.00
71195;BME280;58908;51.426;7.714;2023-12-20T11:58:34;99536.34;;;6.67;100.00
71195;BME280;58908;51.426;7.714;2023-12-20T12:01:02;99541.59;;;6.67;100.00
71195;BME280;58908;51.426;7.714;2023-12-20T12:03:29;99523.72;;;6.75;100.00
71195;BME280;58908;51.426;7.714;2023-12-20T12:05:55;99525.88;;;6.85;100.00
71195;BME280;58908;51.426;7.714;2023-12-20T12:08:22;99516.44;;;6.81;100.00
71195;BME280;58908;51.426;7.714;2023-12-20T12:10:48;99521.47;;;6.86;100.00
71195;BME280;58908;51.426;7.714;2023-12-20T12:13:15;99523.38;;;6.82;100.00
71195;BME280;58908;51.426;7.714;2023-12-20T12:15:41;99522.91;;;6.74;100.00
71195;BME280;58908;51.426;7.714;2023-12-20T12:18:09;99526.56;;;6.70;100.00
71195;BME280;58908;51.426;7.714;2023-12-20T12:20:36;99523.16;;;6.68;100.00
71195;BME280;58908;51.426;7.714;2023-12-20T12:23:03;99512.63;;;6.70;100.00
71195;BME280;58908;51.426;7.714;2023-12-20T12:25:31;99509.34;;;6.65;100.00
71195;BME280;58908;51.426;7.714;2023-12-20T12:27:58;99504.66;;;6.71;100.00
71195;BME280;58908;51.426;7.714;2023-12-20T12:30:24;99500.91;;;6.77;100.00
71195;BME280;58908;51.426;7.714;2023-12-20T12:32:51;99499.31;;;6.74;100.00
71195;BME280;58908;51.426;7.714;2023-12-20T12:35:19;99510.19;;;6.65;100.00
71195;BME280;58908;51.426;7.714;2023-12-20T12:37:45;99491.72;;;6.68;100.00
71195;BME280;58908;51.426;7.714;2023-12-20T12:40:12;99491.91;;;6.64;100.00
71195;BME280;58908;51.426;7.714;2023-12-20T12:42:39;99496.88;;;6.70;100.00
71195;BME280;58908;51.426;7.714;2023-12-20T12:45:06;99501.00;;;6.57;100.00
71195;BME280;58908;51.426;7.714;2023-12-20T12:47:32;99500.06;;;6.58;100.00
71195;BME280;58908;51.426;7.714;2023-12-20T12:49:59;99499.19;;;6.57;100.00
71195;BME280;58908;51.426;7.714;2023-12-20T12:52:26;99496.16;;;6.48;100.00
71195;BME280;58908;51.426;7.714;2023-12-20T12:54:53;99489.94;;;6.50;100.00
71195;BME280;58908;51.426;7.714;2023-12-20T12:57:19;99495.22;;;6.49;100.00